sensor_id;sensor_type;location;lat;lon;timestamp;pressure;altitude;pressure_sealevel;temperature;humidity
63019;BME280;49105;46.046;10.760;2023-07-29T00:02:05;95560.69;;;20.02;73.55
63019;BME280;49105;46.046;10.760;2023-07-29T00:04:39;95560.56;;;19.98;73.46
63019;BME280;49105;46.046;10.760;2023-07-29T00:07:11;95558.00;;;20.02;73.44
63019;BME280;49105;46.046;10.760;2023-07-29T00:09:48;95563.50;;;20.05;73.39
63019;BME280;49105;46.046;10.760;2023-07-29T00:12:14;95565.84;;;19.95;73.64
63019;BME280;49105;46.046;10.760;2023-07-29T00:14:39;95566.06;;;19.90;73.60
63019;BME280;49105;46.046;10.760;2023-07-29T00:17:05;95562.13;;;19.87;73.85
63019;BME280;49105;46.046;10.760;2023-07-29T00:19:37;95554.41;;;19.86;73.91
63019;BME280;49105;46.046;10.760;2023-07-29T00:22:15;95553.75;;;19.89;73.86
63019;BME280;49105;46.046;10.760;2023-07-29T00:24:52;95549.94;;;19.90;73.78
63019;BME280;49105;46.046;10.760;2023-07-29T00:27:25;95542.22;;;19.88;73.63
63019;BME280;49105;46.046;10.760;2023-07-29T00:29:50;95542.75;;;19.81;73.94
63019;BME280;49105;46.046;10.760;2023-07-29T00:32:16;95536.50;;;19.77;74.09
63019;BME280;49105;46.046;10.760;2023-07-29T00:34:48;95543.88;;;19.80;73.94
63019;BME280;49105;46.046;10.760;2023-07-29T00:37:23;95550.81;;;19.81;73.93
63019;BME280;49105;46.046;10.760;2023-07-29T00:40:00;95539.28;;;19.81;73.77
63019;BME280;49105;46.046;10.760;2023-07-29T00:42:26;95537.28;;;19.78;73.94
63019;BME280;49105;46.046;10.760;2023-07-29T00:44:54;95525.31;;;19.75;73.92
63019;BME280;49105;46.046;10.760;2023-07-29T00:47:20;95533.38;;;19.75;73.77
63019;BME280;49105;46.046;10.760;2023-07-29T00:49:47;95539.28;;;19.69;73.74
63019;BME280;49105;46.046;10.760;2023-07-29T00:52:13;95538.81;;;19.67;73.90
63019;BME280;49105;46.046;10.760;2023-07-29T00:54:39;95533.78;;;19.65;74.04
63019;BME280;49105;46.046;10.760;2023-07-29T00:57:13;95531.94;;;19.57;74.01
63019;BME280;49105;46.046;10.760;2023-07-29T00:59:46;95527.66;;;19.44;74.13
63019;BME280;49105;46.046;10.760;2023-07-29T01:02:12;95527.53;;;19.40;74.27
63019;BME280;49105;46.046;10.760;2023-07-29T01:04:38;95529.44;;;19.40;74.34
63019;BME280;49105;46.046;10.760;2023-07-29T01:18:19;95540.94;;;19.07;74.97
63019;BME280;49105;46.046;10.760;2023-07-29T01:20:59;95537.44;;;18.94;75.28
63019;BME280;49105;46.046;10.760;2023-07-29T01:23:31;95528.13;;;18.92;75.56
63019;BME280;49105;46.046;10.760;2023-07-29T01:29:19;95529.84;;;18.75;75.81
63019;BME280;49105;46.046;10.760;2023-07-29T01:31:51;95531.94;;;18.70;76.03
63019;BME280;49105;46.046;10.760;2023-07-29T01:34:48;95529.50;;;18.56;76.18
63019;BME280;49105;46.046;10.760;2023-07-29T01:37:19;95538.81;;;18.50;76.64
63019;BME280;49105;46.046;10.760;2023-07-29T01:39:49;95532.63;;;18.58;76.76
63019;BME280;49105;46.046;10.760;2023-07-29T01:42:25;95512.56;;;18.64;76.30
63019;BME280;49105;46.046;10.760;2023-07-29T01:45:00;95512.66;;;18.68;76.27
63019;BME280;49105;46.046;10.760;2023-07-29T01:47:35;95517.59;;;18.66;76.27
63019;BME280;49105;46.046;10.760;2023-07-29T01:50:11;95526.41;;;18.66;75.99
63019;BME280;49105;46.046;10.760;2023-07-29T01:52:43;95534.50;;;18.57;76.33
63019;BME280;49105;46.046;10.760;2023-07-29T01:55:09;95540.84;;;18.53;76.71
63019;BME280;49105;46.046;10.760;2023-07-29T01:57:34;95539.66;;;18.63;76.50
63019;BME280;49105;46.046;10.760;2023-07-29T02:00:03;95535.09;;;18.63;76.57
63019;BME280;49105;46.046;10.760;2023-07-29T02:02:35;95535.69;;;18.69;76.71
63019;BME280;49105;46.046;10.760;2023-07-29T02:05:01;95542.94;;;18.77;76.56
63019;BME280;49105;46.046;10.760;2023-07-29T02:07:26;95544.22;;;18.71;76.54
63019;BME280;49105;46.046;10.760;2023-07-29T02:09:52;95550.53;;;18.66;76.51
63019;BME280;49105;46.046;10.760;2023-07-29T02:12:24;95550.84;;;18.73;76.61
63019;BME280;49105;46.046;10.760;2023-07-29T02:14:50;95547.50;;;18.76;76.25
63019;BME280;49105;46.046;10.760;2023-07-29T02:17:22;95550.38;;;18.71;76.48
63019;BME280;49105;46.046;10.760;2023-07-29T02:19:54;95548.25;;;18.56;76.32
63019;BME280;49105;46.046;10.760;2023-07-29T02:22:26;95548.56;;;18.54;76.59
63019;BME280;49105;46.046;10.760;2023-07-29T02:24:51;95541.56;;;18.62;76.35
63019;BME280;49105;46.046;10.760;2023-07-29T02:27:17;95545.81;;;18.63;76.48
63019;BME280;49105;46.046;10.760;2023-07-29T02:29:48;95545.38;;;18.61;76.27
63019;BME280;49105;46.046;10.760;2023-07-29T02:32:14;95554.56;;;18.51;76.63
63019;BME280;49105;46.046;10.760;2023-07-29T02:34:39;95549.53;;;18.50;76.75
63019;BME280;49105;46.046;10.760;2023-07-29T02:37:05;95548.41;;;18.51;76.52
63019;BME280;49105;46.046;10.760;2023-07-29T02:39:30;95552.22;;;18.50;76.25
63019;BME280;49105;46.046;10.760;2023-07-29T02:42:08;95553.53;;;18.44;76.33
63019;BME280;49105;46.046;10.760;2023-07-29T02:44:33;95548.19;;;18.35;76.35
63019;BME280;49105;46.046;10.760;2023-07-29T02:46:59;95544.72;;;18.34;76.94
63019;BME280;49105;46.046;10.760;2023-07-29T02:49:27;95536.88;;;18.29;77.05
63019;BME280;49105;46.046;10.760;2023-07-29T02:51:59;95542.72;;;18.31;76.84
63019;BME280;49105;46.046;10.760;2023-07-29T02:54:31;95544.91;;;18.29;76.64
63019;BME280;49105;46.046;10.760;2023-07-29T02:56:56;95543.34;;;18.28;76.74
63019;BME280;49105;46.046;10.760;2023-07-29T02:59:27;95546.03;;;18.28;76.92
63019;BME280;49105;46.046;10.760;2023-07-29T03:02:02;95546.56;;;18.13;76.74
63019;BME280;49105;46.046;10.760;2023-07-29T03:07:49;95562.84;;;18.08;76.91
63019;BME280;49105;46.046;10.760;2023-07-29T03:10:15;95561.41;;;18.10;76.77
63019;BME280;49105;46.046;10.760;2023-07-29T03:12:56;95559.78;;;18.18;77.16
63019;BME280;49105;46.046;10.760;2023-07-29T03:15:25;95559.66;;;18.15;76.72
63019;BME280;49105;46.046;10.760;2023-07-29T03:17:58;95551.78;;;18.09;76.81
63019;BME280;49105;46.046;10.760;2023-07-29T03:20:29;95550.41;;;18.03;77.27
63019;BME280;49105;46.046;10.760;2023-07-29T03:23:07;95548.50;;;18.04;77.50
63019;BME280;49105;46.046;10.760;2023-07-29T03:25:42;95559.22;;;18.04;77.42
63019;BME280;49105;46.046;10.760;2023-07-29T03:28:13;95562.53;;;18.01;77.18
63019;BME280;49105;46.046;10.760;2023-07-29T03:30:48;95559.88;;;18.01;77.21
63019;BME280;49105;46.046;10.760;2023-07-29T03:33:24;95561.94;;;17.95;77.07
63019;BME280;49105;46.046;10.760;2023-07-29T03:35:59;95565.72;;;17.94;77.32
63019;BME280;49105;46.046;10.760;2023-07-29T03:38:36;95567.28;;;17.95;77.25
63019;BME280;49105;46.046;10.760;2023-07-29T03:41:08;95563.84;;;17.95;77.47
63019;BME280;49105;46.046;10.760;2023-07-29T03:43:36;95575.63;;;17.94;77.51
63019;BME280;49105;46.046;10.760;2023-07-29T03:46:02;95563.53;;;17.88;77.46
63019;BME280;49105;46.046;10.760;2023-07-29T03:48:28;95562.13;;;17.81;77.30
63019;BME280;49105;46.046;10.760;2023-07-29T03:50:54;95565.91;;;17.80;77.81
63019;BME280;49105;46.046;10.760;2023-07-29T03:53:22;95564.81;;;17.81;77.68
63019;BME280;49105;46.046;10.760;2023-07-29T03:55:57;95562.47;;;17.80;77.44
63019;BME280;49105;46.046;10.760;2023-07-29T03:58:22;95565.00;;;17.76;77.41
63019;BME280;49105;46.046;10.760;2023-07-29T04:00:48;95563.72;;;17.74;77.57
63019;BME280;49105;46.046;10.760;2023-07-29T04:03:14;95570.94;;;17.73;77.77
63019;BME280;49105;46.046;10.760;2023-07-29T04:05:48;95559.31;;;17.69;77.58
63019;BME280;49105;46.046;10.760;2023-07-29T04:08:22;95574.44;;;17.65;77.85
63019;BME280;49105;46.046;10.760;2023-07-29T04:10:48;95579.78;;;17.65;77.99
63019;BME280;49105;46.046;10.760;2023-07-29T04:13:22;95577.72;;;17.71;77.98
63019;BME280;49105;46.046;10.760;2023-07-29T04:15:54;95576.47;;;17.77;77.62
63019;BME280;49105;46.046;10.760;2023-07-29T04:18:25;95586.72;;;17.83;77.86
63019;BME280;49105;46.046;10.760;2023-07-29T04:21:00;95594.25;;;17.90;77.79
63019;BME280;49105;46.046;10.760;2023-07-29T04:23:32;95585.56;;;17.93;77.83
63019;BME280;49105;46.046;10.760;2023-07-29T04:25:57;95588.56;;;17.92;77.62
63019;BME280;49105;46.046;10.760;2023-07-29T04:28:29;95584.16;;;17.96;77.56
63019;BME280;49105;46.046;10.760;2023-07-29T04:31:03;95581.47;;;17.96;77.42
63019;BME280;49105;46.046;10.760;2023-07-29T04:33:30;95587.00;;;17.91;77.48
63019;BME280;49105;46.046;10.760;2023-07-29T04:35:56;95586.06;;;17.87;77.31
63019;BME280;49105;46.046;10.760;2023-07-29T04:38:21;95600.69;;;17.89;77.51
63019;BME280;49105;46.046;10.760;2023-07-29T04:40:53;95613.31;;;17.89;77.63
63019;BME280;49105;46.046;10.760;2023-07-29T04:43:19;95615.34;;;17.92;77.35
63019;BME280;49105;46.046;10.760;2023-07-29T04:45:50;95627.28;;;18.03;77.45
63019;BME280;49105;46.046;10.760;2023-07-29T04:48:23;95613.91;;;18.03;77.33
63019;BME280;49105;46.046;10.760;2023-07-29T04:50:58;95620.03;;;18.03;77.37
63019;BME280;49105;46.046;10.760;2023-07-29T04:53:29;95616.41;;;18.08;77.21
63019;BME280;49105;46.046;10.760;2023-07-29T04:55:55;95615.59;;;18.16;77.41
63019;BME280;49105;46.046;10.760;2023-07-29T04:58:20;95623.25;;;18.26;77.28
63019;BME280;49105;46.046;10.760;2023-07-29T05:00:47;95613.38;;;18.09;76.88
63019;BME280;49105;46.046;10.760;2023-07-29T05:03:18;95610.00;;;17.92;77.20
63019;BME280;49105;46.046;10.760;2023-07-29T05:05:53;95618.34;;;17.90;77.49
63019;BME280;49105;46.046;10.760;2023-07-29T05:08:20;95616.47;;;17.82;77.32
63019;BME280;49105;46.046;10.760;2023-07-29T05:10:55;95625.13;;;17.88;77.46
63019;BME280;49105;46.046;10.760;2023-07-29T05:13:21;95621.47;;;17.92;77.53
63019;BME280;49105;46.046;10.760;2023-07-29T05:15:50;95617.53;;;17.90;77.60
63019;BME280;49105;46.046;10.760;2023-07-29T05:18:17;95621.16;;;18.02;77.56
63019;BME280;49105;46.046;10.760;2023-07-29T05:20:54;95614.56;;;18.29;77.43
63019;BME280;49105;46.046;10.760;2023-07-29T05:23:29;95620.19;;;18.45;76.83
63019;BME280;49105;46.046;10.760;2023-07-29T05:26:03;95608.78;;;18.57;76.60
63019;BME280;49105;46.046;10.760;2023-07-29T05:28:38;95605.41;;;18.69;76.14
63019;BME280;49105;46.046;10.760;2023-07-29T05:31:03;95596.22;;;18.78;76.05
63019;BME280;49105;46.046;10.760;2023-07-29T05:33:29;95603.03;;;18.97;76.04
63019;BME280;49105;46.046;10.760;2023-07-29T05:36:04;95604.00;;;19.13;75.53
63019;BME280;49105;46.046;10.760;2023-07-29T05:38:36;95604.59;;;19.19;75.35
63019;BME280;49105;46.046;10.760;2023-07-29T05:41:11;95605.19;;;19.24;75.11
63019;BME280;49105;46.046;10.760;2023-07-29T05:43:49;95609.03;;;19.36;74.96
63019;BME280;49105;46.046;10.760;2023-07-29T05:46:23;95603.38;;;19.49;74.55
63019;BME280;49105;46.046;10.760;2023-07-29T05:48:52;95608.34;;;19.59;74.23
63019;BME280;49105;46.046;10.760;2023-07-29T05:51:23;95603.59;;;19.65;73.85
63019;BME280;49105;46.046;10.760;2023-07-29T05:53:49;95603.72;;;19.69;73.28
63019;BME280;49105;46.046;10.760;2023-07-29T05:59:36;95590.34;;;19.60;73.20
63019;BME280;49105;46.046;10.760;2023-07-29T06:02:13;95595.72;;;19.60;73.17
63019;BME280;49105;46.046;10.760;2023-07-29T06:04:42;95596.44;;;19.69;73.22
63019;BME280;49105;46.046;10.760;2023-07-29T06:07:08;95601.19;;;19.85;72.91
63019;BME280;49105;46.046;10.760;2023-07-29T06:09:33;95600.22;;;20.01;72.71
63019;BME280;49105;46.046;10.760;2023-07-29T06:11:59;95601.47;;;20.16;72.32
63019;BME280;49105;46.046;10.760;2023-07-29T06:14:31;95597.31;;;20.19;71.95
63019;BME280;49105;46.046;10.760;2023-07-29T06:16:56;95600.38;;;20.29;71.80
63019;BME280;49105;46.046;10.760;2023-07-29T06:22:43;95598.56;;;20.46;70.93
63019;BME280;49105;46.046;10.760;2023-07-29T06:25:09;95592.41;;;20.45;70.85
63019;BME280;49105;46.046;10.760;2023-07-29T06:27:40;95604.50;;;20.39;70.30
63019;BME280;49105;46.046;10.760;2023-07-29T06:30:12;95598.34;;;20.39;70.25
63019;BME280;49105;46.046;10.760;2023-07-29T06:32:37;95597.69;;;20.42;70.21
63019;BME280;49105;46.046;10.760;2023-07-29T06:35:06;95593.88;;;20.55;69.88
63019;BME280;49105;46.046;10.760;2023-07-29T06:37:37;95598.38;;;20.63;69.30
63019;BME280;49105;46.046;10.760;2023-07-29T06:40:09;95604.41;;;20.72;69.28
63019;BME280;49105;46.046;10.760;2023-07-29T06:42:37;95595.78;;;20.79;68.86
63019;BME280;49105;46.046;10.760;2023-07-29T06:45:13;95599.00;;;20.85;69.22
63019;BME280;49105;46.046;10.760;2023-07-29T06:47:40;95600.00;;;20.92;69.51
63019;BME280;49105;46.046;10.760;2023-07-29T06:50:08;95591.81;;;21.01;69.38
63019;BME280;49105;46.046;10.760;2023-07-29T06:52:34;95601.28;;;21.11;69.16
63019;BME280;49105;46.046;10.760;2023-07-29T06:55:04;95592.66;;;21.17;69.07
63019;BME280;49105;46.046;10.760;2023-07-29T06:57:30;95588.50;;;21.20;68.65
63019;BME280;49105;46.046;10.760;2023-07-29T07:00:08;95589.72;;;21.22;68.36
63019;BME280;49105;46.046;10.760;2023-07-29T07:02:40;95587.47;;;21.24;67.85
63019;BME280;49105;46.046;10.760;2023-07-29T07:05:12;95590.38;;;21.31;67.79
63019;BME280;49105;46.046;10.760;2023-07-29T07:07:38;95590.72;;;21.30;66.98
63019;BME280;49105;46.046;10.760;2023-07-29T07:10:03;95593.63;;;21.37;67.04
63019;BME280;49105;46.046;10.760;2023-07-29T07:12:34;95581.59;;;21.47;67.18
63019;BME280;49105;46.046;10.760;2023-07-29T07:15:12;95570.91;;;21.50;67.00
63019;BME280;49105;46.046;10.760;2023-07-29T07:17:37;95567.00;;;21.48;66.85
63019;BME280;49105;46.046;10.760;2023-07-29T07:20:03;95567.00;;;21.48;66.17
63019;BME280;49105;46.046;10.760;2023-07-29T07:22:37;95566.31;;;21.51;65.18
63019;BME280;49105;46.046;10.760;2023-07-29T07:25:09;95569.63;;;21.60;65.05
63019;BME280;49105;46.046;10.760;2023-07-29T07:27:37;95571.56;;;21.75;65.38
63019;BME280;49105;46.046;10.760;2023-07-29T07:30:03;95559.94;;;21.87;65.08
63019;BME280;49105;46.046;10.760;2023-07-29T07:32:28;95557.53;;;21.98;64.51
63019;BME280;49105;46.046;10.760;2023-07-29T07:35:03;95558.56;;;21.93;62.53
63019;BME280;49105;46.046;10.760;2023-07-29T07:37:35;95552.72;;;22.07;62.77
63019;BME280;49105;46.046;10.760;2023-07-29T07:40:00;95548.56;;;22.10;60.53
63019;BME280;49105;46.046;10.760;2023-07-29T07:42:37;95546.91;;;22.05;60.10
63019;BME280;49105;46.046;10.760;2023-07-29T07:45:09;95541.81;;;22.16;60.94
63019;BME280;49105;46.046;10.760;2023-07-29T07:47:45;95545.09;;;22.41;61.28
63019;BME280;49105;46.046;10.760;2023-07-29T07:50:16;95550.38;;;22.53;60.53
63019;BME280;49105;46.046;10.760;2023-07-29T07:52:42;95555.34;;;22.51;60.09
63019;BME280;49105;46.046;10.760;2023-07-29T07:55:13;95551.78;;;22.47;60.00
63019;BME280;49105;46.046;10.760;2023-07-29T08:00:47;95547.00;;;22.40;59.94
63019;BME280;49105;46.046;10.760;2023-07-29T08:03:13;95542.66;;;22.36;59.85
63019;BME280;49105;46.046;10.760;2023-07-29T08:05:47;95532.94;;;22.31;60.10
63019;BME280;49105;46.046;10.760;2023-07-29T08:08:13;95546.22;;;22.40;60.52
63019;BME280;49105;46.046;10.760;2023-07-29T08:10:52;95535.59;;;22.47;60.77
63019;BME280;49105;46.046;10.760;2023-07-29T08:13:24;95531.31;;;22.46;60.57
63019;BME280;49105;46.046;10.760;2023-07-29T08:15:58;95524.09;;;22.50;61.02
63019;BME280;49105;46.046;10.760;2023-07-29T08:18:24;95518.31;;;22.67;61.10
63019;BME280;49105;46.046;10.760;2023-07-29T08:20:56;95520.16;;;22.83;61.06
63019;BME280;49105;46.046;10.760;2023-07-29T08:23:31;95521.28;;;22.97;61.11
63019;BME280;49105;46.046;10.760;2023-07-29T08:26:00;95516.09;;;23.08;61.19
63019;BME280;49105;46.046;10.760;2023-07-29T08:28:30;95510.97;;;23.22;61.38
63019;BME280;49105;46.046;10.760;2023-07-29T08:30:55;95508.13;;;23.35;61.12
63019;BME280;49105;46.046;10.760;2023-07-29T08:33:21;95498.19;;;23.39;60.68
63019;BME280;49105;46.046;10.760;2023-07-29T08:35:55;95494.53;;;23.50;60.86
63019;BME280;49105;46.046;10.760;2023-07-29T08:38:21;95489.31;;;23.61;60.81
63019;BME280;49105;46.046;10.760;2023-07-29T08:40:59;95483.66;;;23.66;60.65
63019;BME280;49105;46.046;10.760;2023-07-29T08:43:35;95479.50;;;23.72;60.77
63019;BME280;49105;46.046;10.760;2023-07-29T08:46:12;95484.91;;;23.72;60.94
63019;BME280;49105;46.046;10.760;2023-07-29T08:48:44;95496.69;;;23.64;60.81
63019;BME280;49105;46.046;10.760;2023-07-29T08:51:19;95490.31;;;23.53;60.90
63019;BME280;49105;46.046;10.760;2023-07-29T08:53:52;95491.31;;;23.45;61.31
63019;BME280;49105;46.046;10.760;2023-07-29T08:56:17;95490.47;;;23.41;61.24
63019;BME280;49105;46.046;10.760;2023-07-29T08:58:52;95487.38;;;23.39;61.37
63019;BME280;49105;46.046;10.760;2023-07-29T09:01:26;95487.19;;;23.51;61.36
63019;BME280;49105;46.046;10.760;2023-07-29T09:04:04;95496.41;;;23.69;61.18
63019;BME280;49105;46.046;10.760;2023-07-29T09:06:42;95489.28;;;23.81;60.09
63019;BME280;49105;46.046;10.760;2023-07-29T09:09:17;95490.25;;;23.92;60.04
63019;BME280;49105;46.046;10.760;2023-07-29T09:11:43;95481.81;;;23.97;59.22
63019;BME280;49105;46.046;10.760;2023-07-29T09:14:18;95471.97;;;24.08;59.19
63019;BME280;49105;46.046;10.760;2023-07-29T09:16:50;95480.34;;;24.26;58.97
63019;BME280;49105;46.046;10.760;2023-07-29T09:19:27;95478.22;;;24.39;58.10
63019;BME280;49105;46.046;10.760;2023-07-29T09:22:02;95481.41;;;24.44;57.95
63019;BME280;49105;46.046;10.760;2023-07-29T09:24:36;95469.16;;;24.54;57.86
63019;BME280;49105;46.046;10.760;2023-07-29T09:29:46;95467.34;;;24.62;58.17
63019;BME280;49105;46.046;10.760;2023-07-29T09:35:28;95458.84;;;24.63;57.79
63019;BME280;49105;46.046;10.760;2023-07-29T09:37:53;95466.56;;;24.61;57.72
63019;BME280;49105;46.046;10.760;2023-07-29T09:40:19;95465.41;;;24.62;57.43
63019;BME280;49105;46.046;10.760;2023-07-29T09:42:48;95458.72;;;24.53;57.23
63019;BME280;49105;46.046;10.760;2023-07-29T09:45:19;95454.44;;;24.51;57.37
63019;BME280;49105;46.046;10.760;2023-07-29T09:47:54;95456.03;;;24.56;57.02
63019;BME280;49105;46.046;10.760;2023-07-29T09:50:31;95454.44;;;24.51;57.00
63019;BME280;49105;46.046;10.760;2023-07-29T09:53:02;95453.03;;;24.61;57.14
63019;BME280;49105;46.046;10.760;2023-07-29T09:55:37;95452.38;;;24.71;57.01
63019;BME280;49105;46.046;10.760;2023-07-29T09:58:14;95463.75;;;24.84;57.13
63019;BME280;49105;46.046;10.760;2023-07-29T10:00:53;95463.09;;;24.94;56.71
63019;BME280;49105;46.046;10.760;2023-07-29T10:03:27;95458.13;;;25.00;56.39
63019;BME280;49105;46.046;10.760;2023-07-29T10:05:54;95451.94;;;24.99;56.62
63019;BME280;49105;46.046;10.760;2023-07-29T10:08:32;95442.66;;;25.00;56.73
63019;BME280;49105;46.046;10.760;2023-07-29T10:11:06;95436.91;;;25.06;56.64
63019;BME280;49105;46.046;10.760;2023-07-29T10:13:32;95442.91;;;25.22;56.61
63019;BME280;49105;46.046;10.760;2023-07-29T10:16:04;95443.84;;;25.37;55.77
63019;BME280;49105;46.046;10.760;2023-07-29T10:18:38;95438.91;;;25.46;55.83
63019;BME280;49105;46.046;10.760;2023-07-29T10:21:04;95430.06;;;25.53;55.04
63019;BME280;49105;46.046;10.760;2023-07-29T10:23:41;95435.53;;;25.56;54.57
63019;BME280;49105;46.046;10.760;2023-07-29T10:26:14;95426.63;;;25.59;54.45
63019;BME280;49105;46.046;10.760;2023-07-29T10:28:41;95423.09;;;25.55;54.42
63019;BME280;49105;46.046;10.760;2023-07-29T10:31:11;95427.78;;;25.58;54.71
63019;BME280;49105;46.046;10.760;2023-07-29T10:33:36;95425.50;;;25.60;54.85
63019;BME280;49105;46.046;10.760;2023-07-29T10:36:11;95419.66;;;25.58;54.74
63019;BME280;49105;46.046;10.760;2023-07-29T10:38:43;95423.94;;;25.63;55.02
63019;BME280;49105;46.046;10.760;2023-07-29T10:41:08;95418.50;;;25.59;55.00
63019;BME280;49105;46.046;10.760;2023-07-29T10:43:46;95410.00;;;25.61;55.33
63019;BME280;49105;46.046;10.760;2023-07-29T10:46:27;95406.16;;;25.65;54.95
63019;BME280;49105;46.046;10.760;2023-07-29T10:49:01;95408.16;;;25.72;54.96
63019;BME280;49105;46.046;10.760;2023-07-29T10:51:45;95398.19;;;25.83;54.05
63019;BME280;49105;46.046;10.760;2023-07-29T10:54:11;95404.81;;;25.86;54.26
63019;BME280;49105;46.046;10.760;2023-07-29T10:56:39;95397.06;;;25.88;54.45
63019;BME280;49105;46.046;10.760;2023-07-29T11:01:42;95403.38;;;26.03;54.18
63019;BME280;49105;46.046;10.760;2023-07-29T11:12:45;95389.47;;;26.11;53.81
63019;BME280;49105;46.046;10.760;2023-07-29T11:20:16;95391.44;;;26.14;53.51
63019;BME280;49105;46.046;10.760;2023-07-29T11:22:52;95378.66;;;26.18;53.83
63019;BME280;49105;46.046;10.760;2023-07-29T11:25:18;95379.81;;;26.21;53.52
63019;BME280;49105;46.046;10.760;2023-07-29T11:27:53;95371.34;;;26.26;53.48
63019;BME280;49105;46.046;10.760;2023-07-29T11:30:31;95362.47;;;26.36;53.29
63019;BME280;49105;46.046;10.760;2023-07-29T11:33:02;95354.81;;;26.53;53.40
63019;BME280;49105;46.046;10.760;2023-07-29T11:35:38;95357.56;;;26.60;53.06
63019;BME280;49105;46.046;10.760;2023-07-29T11:38:14;95352.91;;;26.60;52.61
63019;BME280;49105;46.046;10.760;2023-07-29T11:40:39;95344.75;;;26.60;52.06
63019;BME280;49105;46.046;10.760;2023-07-29T11:43:05;95332.38;;;26.63;52.51
63019;BME280;49105;46.046;10.760;2023-07-29T11:45:40;95339.38;;;26.71;52.17
63019;BME280;49105;46.046;10.760;2023-07-29T11:48:14;95338.59;;;26.70;52.15
63019;BME280;49105;46.046;10.760;2023-07-29T11:50:49;95341.75;;;26.83;52.01
63019;BME280;49105;46.046;10.760;2023-07-29T11:53:25;95342.53;;;26.94;51.41
63019;BME280;49105;46.046;10.760;2023-07-29T11:56:00;95334.38;;;26.98;50.50
63019;BME280;49105;46.046;10.760;2023-07-29T11:58:26;95344.50;;;27.05;49.87
63019;BME280;49105;46.046;10.760;2023-07-29T12:00:52;95338.66;;;26.99;50.62
63019;BME280;49105;46.046;10.760;2023-07-29T12:03:17;95343.31;;;26.91;50.63
63019;BME280;49105;46.046;10.760;2023-07-29T12:05:43;95342.16;;;26.92;50.85
63019;BME280;49105;46.046;10.760;2023-07-29T12:08:09;95342.97;;;27.14;50.79
63019;BME280;49105;46.046;10.760;2023-07-29T12:10:35;95340.28;;;27.29;50.20
63019;BME280;49105;46.046;10.760;2023-07-29T12:13:03;95338.34;;;27.36;50.44
63019;BME280;49105;46.046;10.760;2023-07-29T12:15:29;95341.06;;;27.26;49.69
63019;BME280;49105;46.046;10.760;2023-07-29T12:18:07;95338.72;;;27.17;50.32
63019;BME280;49105;46.046;10.760;2023-07-29T12:20:41;95334.03;;;27.10;50.67
63019;BME280;49105;46.046;10.760;2023-07-29T12:23:13;95333.66;;;27.12;50.13
63019;BME280;49105;46.046;10.760;2023-07-29T12:25:38;95329.41;;;27.29;50.07
63019;BME280;49105;46.046;10.760;2023-07-29T12:28:12;95337.94;;;27.34;50.17
63019;BME280;49105;46.046;10.760;2023-07-29T12:30:43;95328.63;;;27.17;50.02
63019;BME280;49105;46.046;10.760;2023-07-29T12:33:42;95324.28;;;26.95;50.67
63019;BME280;49105;46.046;10.760;2023-07-29T12:36:10;95323.84;;;26.68;51.11
63019;BME280;49105;46.046;10.760;2023-07-29T12:38:44;95317.63;;;26.60;51.60
63019;BME280;49105;46.046;10.760;2023-07-29T12:41:10;95304.47;;;26.62;51.88
63019;BME280;49105;46.046;10.760;2023-07-29T12:43:37;95303.31;;;26.67;52.09
63019;BME280;49105;46.046;10.760;2023-07-29T12:46:05;95310.28;;;26.68;52.23
63019;BME280;49105;46.046;10.760;2023-07-29T12:48:38;95314.53;;;26.58;52.10
63019;BME280;49105;46.046;10.760;2023-07-29T12:51:06;95308.28;;;26.47;52.49
63019;BME280;49105;46.046;10.760;2023-07-29T12:53:32;95307.81;;;26.31;52.35
63019;BME280;49105;46.046;10.760;2023-07-29T12:55:57;95301.16;;;26.14;52.85
63019;BME280;49105;46.046;10.760;2023-07-29T12:58:28;95301.03;;;25.96;52.94
63019;BME280;49105;46.046;10.760;2023-07-29T13:01:03;95298.66;;;25.80;53.23
63019;BME280;49105;46.046;10.760;2023-07-29T13:03:40;95307.06;;;25.71;53.14
63019;BME280;49105;46.046;10.760;2023-07-29T13:06:18;95305.53;;;25.74;52.76
63019;BME280;49105;46.046;10.760;2023-07-29T13:08:44;95298.56;;;25.69;53.05
63019;BME280;49105;46.046;10.760;2023-07-29T13:11:09;95305.50;;;25.67;53.14
63019;BME280;49105;46.046;10.760;2023-07-29T13:13:35;95317.84;;;25.61;53.79
63019;BME280;49105;46.046;10.760;2023-07-29T13:16:12;95319.00;;;25.56;53.76
63019;BME280;49105;46.046;10.760;2023-07-29T13:18:38;95308.53;;;25.58;54.52
63019;BME280;49105;46.046;10.760;2023-07-29T13:21:13;95318.22;;;25.56;54.62
63019;BME280;49105;46.046;10.760;2023-07-29T13:23:38;95315.50;;;25.56;55.30
63019;BME280;49105;46.046;10.760;2023-07-29T13:26:04;95313.53;;;25.53;55.50
63019;BME280;49105;46.046;10.760;2023-07-29T13:28:41;95311.56;;;25.46;56.50
63019;BME280;49105;46.046;10.760;2023-07-29T13:31:07;95312.31;;;25.43;56.85
63019;BME280;49105;46.046;10.760;2023-07-29T13:33:35;95310.38;;;25.43;56.50
63019;BME280;49105;46.046;10.760;2023-07-29T13:36:10;95319.69;;;25.46;56.50
63019;BME280;49105;46.046;10.760;2023-07-29T13:38:41;95323.19;;;25.50;56.50
63019;BME280;49105;46.046;10.760;2023-07-29T13:41:13;95318.53;;;25.50;56.73
63019;BME280;49105;46.046;10.760;2023-07-29T13:43:38;95322.41;;;25.49;56.37
63019;BME280;49105;46.046;10.760;2023-07-29T13:46:03;95318.53;;;25.50;56.70
63019;BME280;49105;46.046;10.760;2023-07-29T13:48:38;95319.28;;;25.44;56.99
63019;BME280;49105;46.046;10.760;2023-07-29T13:51:15;95316.13;;;25.38;57.10
63019;BME280;49105;46.046;10.760;2023-07-29T13:53:43;95317.34;;;25.44;56.86
63019;BME280;49105;46.046;10.760;2023-07-29T13:56:21;95312.72;;;25.45;56.58
63019;BME280;49105;46.046;10.760;2023-07-29T13:58:56;95316.59;;;25.44;56.37